• Join FlightAware (Why Join?)
  • Login
  • US Flag 
04:33PM EDT


 

Airport Tracker/Info


-or-


 

Live Flight TrackerFlight Track Log ✈ N516QS ✈ 16-May-2013 ✈ KTEB - KAVL

Flight Track Log - Related Links

Times and Time Zones

All times are in EDT time to prevent confusion due to time zone crossing. See the N516QS flight status page for this flight to view local times or setup timezone preferences in your user account.

Time Position Orientation Groundspeed Altitude Reporting Facility
EDT Latitude Longitude Course Direction KTS MPH feet Rate Location/Type
01:33PM 40.8167 -74.1667 270° West 208 239 2,300  Level New York TRACON
01:34PM 40.7833 -74.2500 242° Southwest 256 295 5,300 4,020 Climbing New York TRACON
01:34PM 40.7667 -74.3333 255° West 246 283 10,000 4,380 Climbing New York TRACON
01:36PM 40.7667 -74.4564 270° West 258 297 16,200 2,940 Climbing New York Center
01:37PM 40.7467 -74.5592 256° West 258 297 17,600 1,860 Climbing New York Center
01:38PM 40.6000 -74.8465 270° West  Level FlightAware Approximate
01:38PM 40.7036 -74.6664 242° Southwest 297 342 19,900  Level New York Center
01:39PM 40.6583 -74.7758 241° Southwest 330 380 23,000 2,940 Climbing New York Center
01:40PM 40.6103 -74.9017 243° Southwest 360 414 25,900 2,640 Climbing New York Center
01:41PM 40.5600 -75.0269 242° Southwest 382 440 28,400 2,400 Climbing New York Center
01:42PM 40.4889 -75.1481 232° Southwest 399 459 30,800 2,100 Climbing New York Center
01:43PM 40.4136 -75.2633 229° Southwest 416 479 32,600 2,040 Climbing New York Center
01:44PM 40.3381 -75.3836 231° Southwest 429 494 34,900 2,100 Climbing New York Center
01:45PM 40.2669 -75.4958 230° Southwest 434 499 36,900 1,980 Climbing New York Center
01:46PM 40.1931 -75.6186 232° Southwest 439 505 39,000 1,560 Climbing New York Center
01:47PM 40.1175 -75.7356 230° Southwest 434 499 40,000 480 Climbing New York Center
01:48PM 40.0433 -75.8603 232° Southwest 439 505 40,000  Level New York Center
01:50PM 39.8939 -76.0892 230° Southwest 435 501 40,000  Level Washington Center
01:51PM 39.8183 -76.2100 231° Southwest 435 501 40,000  Level Washington Center
01:52PM 39.7425 -76.3336 231° Southwest 440 506 40,000  Level Washington Center
01:53PM 39.6625 -76.4567 230° Southwest 448 516 40,000  Level Washington Center
01:54PM 39.5719 -76.5903 229° Southwest 448 516 40,000  Level Washington Center
01:55PM 39.4939 -76.7131 231° Southwest 453 521 40,000  Level Washington Center
01:56PM 39.4156 -76.8353 230° Southwest 453 521 40,000  Level Washington Center
01:57PM 39.3372 -76.9575 230° Southwest 453 521 40,000  Level Washington Center
01:58PM 39.2564 -77.0819 230° Southwest 453 521 40,000  Level Washington Center
01:59PM 39.1800 -77.2008 230° Southwest 453 521 40,000  Level Washington Center
02:00PM 39.1011 -77.3222 230° Southwest 453 521 40,000  Level Washington Center
02:01PM 39.0222 -77.4431 230° Southwest 453 521 40,000  Level Washington Center
02:02PM 38.9453 -77.5614 230° Southwest 448 516 40,000  Level Washington Center
02:03PM 38.8639 -77.6792 228° Southwest 448 516 40,000  Level Washington Center
02:04PM 38.7911 -77.7969 232° Southwest 441 507 40,000  Level Washington Center
02:05PM 38.7139 -77.9064 228° Southwest 452 520 40,000  Level Washington Center
02:06PM 38.6386 -78.0236 231° Southwest 452 520 40,000  Level Washington Center
02:07PM 38.5611 -78.1406 230° Southwest 447 514 40,000  Level Washington Center
02:08PM 38.4814 -78.2572 229° Southwest 442 509 40,000  Level Washington Center
02:09PM 38.4058 -78.3736 230° Southwest 442 509 40,000  Level Washington Center
02:10PM 38.3281 -78.4872 229° Southwest 442 509 40,000  Level Washington Center
02:11PM 38.2522 -78.6033 230° Southwest 437 503 40,000  Level Washington Center
02:12PM 38.1678 -78.7294 230° Southwest 437 503 40,000  Level Washington Center
02:13PM 38.0897 -78.8422 229° Southwest 437 503 40,000  Level Washington Center
02:14PM 38.0092 -78.9572 228° Southwest 437 503 40,000  Level Washington Center
02:15PM 37.9353 -79.0619 228° Southwest 442 509 40,000  Level Washington Center
02:16PM 37.8672 -79.1850 235° Southwest 442 509 40,000  Level Washington Center
02:17PM 37.8028 -79.3133 238° Southwest 442 509 40,000  Level Washington Center
02:18PM 37.7336 -79.4544 238° Southwest 437 503 40,000  Level Washington Center
02:19PM 37.6736 -79.5669 236° Southwest 430 495 40,000  Level Washington Center
02:20PM 37.6042 -79.7075 238° Southwest 435 501 40,000  Level Washington Center
02:21PM 37.5439 -79.8219 236° Southwest 435 501 40,000  Level Washington Center
02:22PM 37.4786 -79.9572 239° Southwest 444 511 40,000  Level Washington Center
02:24PM 37.3022 -80.2950 237° Southwest 428 493 40,000  Level Atlanta Center
02:25PM 37.2392 -80.4178 237° Southwest 433 498 40,000  Level Atlanta Center
02:26PM 37.1781 -80.5328 236° Southwest 433 498 40,000 -60 Level Atlanta Center
02:27PM 37.1128 -80.6631 238° Southwest 438 504 39,900 -540 Descending Atlanta Center
02:28PM 37.0283 -80.7733 226° Southwest 444 511 39,000 -1,320 Descending Atlanta Center
02:29PM 36.9203 -80.8711 216° Southwest 443 510 37,300 -1,920 Descending Atlanta Center
02:30PM 36.8267 -80.9581 217° Southwest 443 510 35,200 -2,100 Descending Atlanta Center
02:31PM 36.7308 -81.0472 217° Southwest 438 504 33,200 -2,100 Descending Atlanta Center
02:32PM 36.6311 -81.1442 218° Southwest 438 504 31,000 -2,220 Descending Atlanta Center
02:33PM 36.5331 -81.2356 217° Southwest 449 517 28,800 -2,220 Descending Atlanta Center
02:34PM 36.4350 -81.3292 218° Southwest 449 517 26,600 -2,160 Descending Atlanta Center
02:35PM 36.3389 -81.4175 217° Southwest 442 509 24,500 -2,160 Descending Atlanta Center
02:36PM 36.2489 -81.5028 217° Southwest 429 494 22,300 -2,100 Descending Atlanta Center
02:37PM 36.1589 -81.5828 216° Southwest 416 479 20,400 -1,980 Descending Atlanta Center
02:38PM 36.0728 -81.6650 218° Southwest 403 464 18,400 -1,920 Descending Atlanta Center
02:39PM 35.9889 -81.7419 217° Southwest 396 456 16,600 -1,800 Descending Atlanta Center
02:40PM 35.9047 -81.8161 216° Southwest 385 443 14,800 -1,800 Descending Atlanta Center
02:41PM 35.8247 -81.8925 218° Southwest 373 429 13,100 -1,680 Descending Atlanta Center
02:42PM 35.7528 -81.9558 216° Southwest 352 405 11,500 -1,140 Descending Atlanta Center
02:43PM 35.6911 -82.0136 217° Southwest 302 348 10,900 -300 Descending Atlanta Center
02:44PM 35.6378 -82.0636 217° Southwest 278 320 11,000  Climbing Atlanta Center
02:45PM 35.5803 -82.1186 218° Southwest 270 311 10,900 -900 Descending Atlanta Center
02:46PM 35.5711 -82.2056 263° West 242 278 9,300 -1,740 Descending Atlanta Center
02:47PM 35.5639 -82.2875 264° West 248 285 7,500 -1,680 Descending Atlanta Center
02:48PM 35.4994 -82.3017 190° South 216 249 6,000 -1,020 Descending Atlanta Center
02:49PM 35.4475 -82.3281 202° Southwest 207 238 5,500 -300 Descending Atlanta Center
02:50PM 35.4150 -82.3822 234° Southwest 196 226 5,400 -540 Descending Atlanta Center
02:51PM 35.3925 -82.4261 238° Southwest 196 226 4,500 9,300 Descending Atlanta Center
02:52PM 35.3558 -82.4828 232° Southwest 196 226 24,000 19,500 Climbing Atlanta Center
02:54PM 35.4333 -82.5333 270° West  Level FlightAware Approximate
03:01PM 35.4362 -82.5418 270° West  Level Estimated